Flight Track Log - Related Links

Times and Time Zones

All times are in EDT time to prevent confusion due to time zone crossing. See the SWA1969 flight status page for this flight to view local times or setup timezone preferences in your user account.

Time Position Orientation Groundspeed Altitude Reporting Facility
EDT Latitude Longitude Course Direction KTS MPH feet Rate Location/Type
Thu 01:35:13 PM 41.7500 -87.8167 255° West 204 235 2,900  Level Chicago TRACON
Thu 01:36:11 PM 41.7353 -87.8928 255° West 212 244 3,200 550 Climbing Chicago Center
Thu 01:37:13 PM 41.7331 -87.9736 268° West 217 250 4,000 1,210 Climbing Chicago Center
Thu 01:38:15 PM 41.7294 -88.0567 267° West 221 254 5,700 968 Climbing Chicago Center
Thu 01:39:17 PM 41.7350 -88.1675 274° West 253 291 6,000 242 Climbing Chicago Center
Thu 01:40:19 PM 41.7689 -88.2506 299° West 257 296 6,200 1,548 Climbing Chicago Center
Thu 01:41:21 PM 41.7956 -88.3358 293° West 255 293 9,200 2,194 Climbing Chicago Center
Thu 01:43:25 PM 41.7922 -88.5539 269° West 293 337 13,000 1,861 Climbing Chicago Center
Thu 01:44:28 PM 41.7656 -88.6753 254° West 337 388 15,000 2,112 Climbing Chicago Center
Thu 01:45:30 PM 41.7381 -88.8033 254° West 358 412 17,400 2,129 Climbing Chicago Center
Thu 01:46:32 PM 41.7086 -88.9358 253° West 371 427 19,400 2,032 Climbing Chicago Center
Thu 01:47:34 PM 41.6789 -89.0700 254° West 380 437 21,600 2,032 Climbing Chicago Center
Thu 01:48:36 PM 41.6453 -89.2347 255° West 387 445 23,600 1,790 Climbing Chicago Center
Thu 01:49:38 PM 41.6133 -89.3769 253° West 397 457 25,300 1,645 Climbing Chicago Center
Thu 01:50:40 PM 41.5794 -89.5211 253° West 406 467 27,000 1,935 Climbing Chicago Center
Thu 01:51:42 PM 41.5472 -89.6611 253° West 405 466 29,300 2,032 Climbing Chicago Center
Thu 01:52:44 PM 41.5172 -89.7944 253° West 387 445 31,200 1,790 Climbing Chicago Center
Thu 01:53:46 PM 41.4828 -89.9472 253° West 367 422 33,000 1,065 Climbing Chicago Center
Thu 01:54:48 PM 41.4525 -90.0764 253° West 364 419 33,400 484 Climbing Chicago Center
Thu 01:55:50 PM 41.4222 -90.2108 253° West 374 430 34,000 290 Climbing Chicago Center
Thu 01:56:52 PM 41.3903 -90.3453 252° West 380 437 34,000  Level Chicago Center
Thu 01:57:54 PM 41.3586 -90.4789 253° West 381 438 34,000 484 Level Chicago Center
Thu 01:58:56 PM 41.3283 -90.6089 253° West 375 432 35,000 871 Climbing Chicago Center
Thu 01:59:58 PM 41.2844 -90.7653 250° West 375 432 35,800 484 Climbing Chicago Center
Thu 02:01:00 PM 41.2461 -90.8958 249° West 379 436 36,000 97 Climbing Chicago Center
Thu 02:02:02 PM 41.2067 -91.0269 248° West 382 440 36,000  Level Chicago Center
Thu 02:03:04 PM 41.1681 -91.1578 249° West 382 440 36,000  Level Chicago Center
Thu 02:04:06 PM 41.1289 -91.2858 248° West 377 434 36,000  Level Chicago Center
Thu 02:05:08 PM 41.0908 -91.4144 249° West 376 433 36,000  Level Chicago Center
Thu 02:06:10 PM 41.0450 -91.5681 248° West 374 430 36,000  Level Chicago Center
Thu 02:07:12 PM 41.0103 -91.6800 248° West 367 422 36,000  Level Chicago Center
Thu 02:08:14 PM 40.9644 -91.8292 248° West 367 422 36,000  Level Chicago Center
Thu 02:09:16 PM 40.9258 -91.9550 248° West 371 427 36,000  Level Chicago Center
Thu 02:10:18 PM 40.8872 -92.0794 248° West 371 427 36,000  Level Chicago Center
Thu 02:11:20 PM 40.8483 -92.2044 248° West 372 428 36,000  Level Chicago Center
Thu 02:12:22 PM 40.8106 -92.3272 248° West 367 422 36,000  Level Chicago Center
Thu 02:13:24 PM 40.7653 -92.4742 248° West 365 420 36,000  Level Chicago Center
Thu 02:14:26 PM 40.7261 -92.5969 247° West 367 422 36,000  Level Chicago Center
Thu 02:15:28 PM 40.6869 -92.7197 247° West 369 425 36,000  Level Chicago Center
Thu 02:16:30 PM 40.6497 -92.8411 248° West 365 420 36,000  Level Chicago Center
Thu 02:17:29 PM 40.6100 -92.9611 246° West 363 418 36,000  Level Kansas City Center
Thu 02:18:33 PM 40.5717 -93.0808 247° West 361 415 36,000  Level Kansas City Center
Thu 02:19:33 PM 40.5258 -93.2247 247° West 361 415 36,000  Level Kansas City Center
Thu 02:20:35 PM 40.4869 -93.3450 247° West 361 415 36,000  Level Kansas City Center
Thu 02:21:39 PM 40.4481 -93.4633 247° West 358 412 36,000  Level Kansas City Center
Thu 02:22:39 PM 40.4092 -93.5817 247° West 357 411 36,000  Level Kansas City Center
Thu 02:23:43 PM 40.3706 -93.7008 247° West 358 412 36,000  Level Kansas City Center
Thu 02:24:44 PM 40.3236 -93.8433 247° West 358 412 36,000  Level Kansas City Center
Thu 02:25:46 PM 40.2847 -93.9606 247° West 355 409 36,000  Level Kansas City Center
Thu 02:26:50 PM 40.2433 -94.0872 247° West 354 407 36,000  Level Kansas City Center
Thu 02:27:50 PM 40.2053 -94.2000 246° West 354 407 36,000  Level Kansas City Center
Thu 02:28:51 PM 40.1594 -94.3317 246° West 356 410 36,000  Level Kansas City Center
Thu 02:29:55 PM 40.1217 -94.4478 247° West 361 415 36,000  Level Kansas City Center
Thu 02:30:55 PM 40.0758 -94.5808 246° West 361 415 36,000  Level Kansas City Center
Thu 02:31:59 PM 40.0383 -94.6956 247° West 360 414 36,000  Level Kansas City Center
Thu 02:33:00 PM 39.9928 -94.8300 246° West 362 417 36,000  Level Kansas City Center
Thu 02:34:04 PM 39.9533 -94.9422 245° Southwest 359 413 36,000  Level Kansas City Center
Thu 02:35:04 PM 39.9047 -95.0750 245° Southwest 363 418 36,000  Level Kansas City Center
Thu 02:36:05 PM 39.8625 -95.1878 244° Southwest 364 419 36,000  Level Kansas City Center
Thu 02:37:09 PM 39.8139 -95.3192 244° Southwest 363 418 36,000  Level Kansas City Center
Thu 02:38:09 PM 39.7725 -95.4328 245° Southwest 364 419 36,000  Level Kansas City Center
Thu 02:39:13 PM 39.7228 -95.5633 244° Southwest 363 418 36,000  Level Kansas City Center
Thu 02:40:13 PM 39.6808 -95.6750 244° Southwest 361 415 36,000  Level Kansas City Center
Thu 02:41:17 PM 39.6319 -95.8042 244° Southwest 360 414 36,000  Level Kansas City Center
Thu 02:42:20 PM 39.5894 -95.9178 244° Southwest 364 419 36,000  Level Kansas City Center
Thu 02:43:21 PM 39.5464 -96.0289 243° Southwest 362 417 36,000  Level Kansas City Center
Thu 02:44:22 PM 39.4972 -96.1592 244° Southwest 361 415 36,000  Level Kansas City Center
Thu 02:45:26 PM 39.4517 -96.2761 243° Southwest 362 417 36,000  Level Kansas City Center
Thu 02:46:26 PM 39.4072 -96.3925 244° Southwest 362 417 36,000  Level Kansas City Center
Thu 02:47:30 PM 39.3614 -96.5108 243° Southwest 360 414 36,000  Level Kansas City Center
Thu 02:48:31 PM 39.3108 -96.6400 243° Southwest 362 417 36,000  Level Kansas City Center
Thu 02:49:32 PM 39.2678 -96.7492 243° Southwest 357 411 36,000  Level Kansas City Center
Thu 02:50:36 PM 39.2189 -96.8767 244° Southwest 356 410 36,000  Level Kansas City Center
Thu 02:51:37 PM 39.1764 -96.9853 243° Southwest 355 409 36,000  Level Kansas City Center
Thu 02:52:38 PM 39.1258 -97.1106 243° Southwest 353 406 36,000  Level Kansas City Center
Thu 02:53:41 PM 39.0856 -97.2203 245° Southwest 354 407 36,000  Level Kansas City Center
Thu 02:54:45 PM 39.0347 -97.3472 243° Southwest 357 411 36,000  Level Kansas City Center
Thu 02:55:45 PM 38.9925 -97.4544 243° Southwest 353 406 36,000  Level Kansas City Center
Thu 02:56:48 PM 38.9417 -97.5808 243° Southwest 356 410 36,000  Level Kansas City Center
Thu 02:57:49 PM 38.9025 -97.6922 246° West 353 406 36,000  Level Kansas City Center
Thu 02:58:50 PM 38.8642 -97.8211 249° West 351 404 36,000  Level Kansas City Center
Thu 02:59:54 PM 38.8317 -97.9233 248° West 356 410 36,000  Level Kansas City Center
Thu 03:00:56 PM 38.7878 -98.0636 248° West 355 409 36,000  Level Kansas City Center
Thu 03:01:56 PM 38.7519 -98.1817 249° West 357 411 36,000  Level Kansas City Center
Thu 03:03:00 PM 38.7139 -98.2994 248° West 358 412 36,000  Level Kansas City Center
Thu 03:04:00 PM 38.6772 -98.4211 249° West 358 412 36,000  Level Kansas City Center
Thu 03:05:04 PM 38.6403 -98.5339 247° West 355 409 36,000  Level Kansas City Center
Thu 03:06:06 PM 38.6039 -98.6517 248° West 357 411 36,000  Level Kansas City Center
Thu 03:07:07 PM 38.5594 -98.7908 248° West 355 409 36,000  Level Kansas City Center
Thu 03:08:10 PM 38.5222 -98.9075 248° West 355 409 36,000  Level Kansas City Center
Thu 03:09:11 PM 38.4853 -99.0225 248° West 354 407 36,000  Level Kansas City Center
Thu 03:11:16 PM 38.4103 -99.2511 247° West 352 405 36,000  Level Kansas City Center
Thu 03:12:19 PM 38.3731 -99.3669 248° West 353 406 36,000  Level Kansas City Center
Thu 03:13:20 PM 38.3283 -99.5053 248° West 353 406 36,000  Level Kansas City Center
Thu 03:14:23 PM 38.2889 -99.6250 247° West 352 405 36,000  Level Kansas City Center
Thu 03:15:24 PM 38.2536 -99.7344 248° West 351 404 36,000  Level Kansas City Center
Thu 03:16:25 PM 38.2106 -99.8606 247° West 349 402 36,000  Level Kansas City Center
Thu 03:17:28 PM 38.1756 -99.9706 248° West 350 403 36,000  Level Kansas City Center
Thu 03:18:30 PM 38.1319 -100.0969 246° West 350 403 36,000  Level Kansas City Center
Thu 03:19:34 PM 38.0961 -100.2072 248° West 352 405 36,000  Level Kansas City Center
Thu 03:20:34 PM 38.0525 -100.3347 247° West 352 405 36,000  Level Kansas City Center
Thu 03:21:38 PM 38.0156 -100.4436 247° West 352 405 36,000  Level Kansas City Center
Thu 03:22:38 PM 37.9725 -100.5703 247° West 351 404 36,000  Level Kansas City Center
Thu 03:23:41 PM 37.9244 -100.6706 239° Southwest 350 403 36,000  Level Kansas City Center
Thu 03:24:42 PM 37.8681 -100.7883 239° Southwest 351 404 36,000  Level Kansas City Center
Thu 03:25:43 PM 37.8206 -100.8878 239° Southwest 349 402 36,000  Level Kansas City Center
Thu 03:26:47 PM 37.7647 -101.0031 239° Southwest 350 403 36,000  Level Kansas City Center
Thu 03:27:48 PM 37.7189 -101.0969 238° Southwest 350 403 36,000  Level Kansas City Center
Thu 03:28:50 PM 37.6603 -101.2181 239° Southwest 350 403 36,000  Level Kansas City Center
Thu 03:29:53 PM 37.6117 -101.3192 239° Southwest 352 405 36,000  Level Kansas City Center
Thu 03:30:53 PM 37.5547 -101.4361 238° Southwest 351 404 36,000  Level Kansas City Center
Thu 03:31:57 PM 37.5050 -101.5383 239° Southwest 356 410 36,000  Level Kansas City Center
Thu 03:33:00 PM 37.4467 -101.6572 238° Southwest 357 411 36,000  Level Kansas City Center
Thu 03:34:01 PM 37.3975 -101.7594 239° Southwest 358 412 36,000  Level Kansas City Center
Thu 03:35:02 PM 37.3392 -101.8794 239° Southwest 360 414 36,000  Level Kansas City Center
Thu 03:35:52 PM 37.2961 -101.9633 237° Southwest 360 414 36,000  Level Albuquerque Center
Thu 03:36:54 PM 37.2464 -102.0656 239° Southwest 358 412 36,000  Level Albuquerque Center
Thu 03:37:56 PM 37.1878 -102.1839 238° Southwest 358 412 36,000  Level Albuquerque Center
Thu 03:38:58 PM 37.1375 -102.2856 238° Southwest 358 412 36,000  Level Albuquerque Center
Thu 03:40:00 PM 37.0789 -102.4036 238° Southwest 358 412 36,000  Level Albuquerque Center
Thu 03:41:02 PM 37.0286 -102.5050 238° Southwest 359 413 36,000  Level Albuquerque Center
Thu 03:42:04 PM 36.9689 -102.6228 238° Southwest 358 412 36,000  Level Albuquerque Center
Thu 03:43:06 PM 36.9164 -102.7228 237° Southwest 360 414 36,000  Level Albuquerque Center
Thu 03:44:08 PM 36.8567 -102.8469 239° Southwest 364 419 36,000  Level Albuquerque Center
Thu 03:46:12 PM 36.7461 -103.0619 237° Southwest 366 421 36,000  Level Albuquerque Center
Thu 03:47:15 PM 36.6914 -103.1708 238° Southwest 367 422 36,000  Level Albuquerque Center
Thu 03:48:17 PM 36.6358 -103.2786 237° Southwest 367 422 36,000  Level Albuquerque Center
Thu 03:49:19 PM 36.5808 -103.3872 238° Southwest 367 422 36,000  Level Albuquerque Center
Thu 03:50:21 PM 36.5247 -103.4953 237° Southwest 369 425 36,000  Level Albuquerque Center
Thu 03:51:23 PM 36.4594 -103.6211 237° Southwest 369 425 36,000  Level Albuquerque Center
Thu 03:52:25 PM 36.4033 -103.7292 237° Southwest 370 426 36,000  Level Albuquerque Center
Thu 03:53:27 PM 36.3467 -103.8369 237° Southwest 371 427 36,000  Level Albuquerque Center
Thu 03:54:29 PM 36.2908 -103.9458 238° Southwest 371 427 36,000  Level Albuquerque Center
Thu 03:55:31 PM 36.2347 -104.0506 236° Southwest 366 421 36,000  Level Albuquerque Center
Thu 03:56:33 PM 36.1797 -104.1569 237° Southwest 364 419 36,000  Level Albuquerque Center
Thu 03:57:35 PM 36.1147 -104.2792 237° Southwest 364 419 36,000  Level Albuquerque Center
Thu 03:58:37 PM 36.0797 -104.3978 250° West 369 425 36,000  Level Albuquerque Center
Thu 03:59:39 PM 36.0542 -104.5183 255° West 365 420 36,000  Level Albuquerque Center
Thu 04:00:41 PM 36.0294 -104.6367 256° West 359 413 36,000  Level Albuquerque Center
Thu 04:01:43 PM 36.0036 -104.7586 255° West 363 418 36,000  Level Albuquerque Center
Thu 04:02:45 PM 35.9778 -104.8808 255° West 365 420 36,000  Level Albuquerque Center
Thu 04:03:48 PM 35.9450 -105.0233 254° West 367 422 36,000  Level Albuquerque Center
Thu 04:04:50 PM 35.9194 -105.1425 255° West 361 415 36,000  Level Albuquerque Center
Thu 04:05:52 PM 35.8925 -105.2631 255° West 361 415 36,000  Level Albuquerque Center
Thu 04:06:54 PM 35.8661 -105.3831 255° West 361 415 36,000  Level Albuquerque Center
Thu 04:07:56 PM 35.8394 -105.5033 255° West 362 417 36,000  Level Albuquerque Center
Thu 04:08:58 PM 35.8156 -105.6169 255° West 363 418 36,000  Level Albuquerque Center
Thu 04:10:00 PM 35.7889 -105.7358 255° West 360 414 36,000  Level Albuquerque Center
Thu 04:11:02 PM 35.7558 -105.8775 254° West 360 414 36,000  Level Albuquerque Center
Thu 04:12:04 PM 35.7294 -105.9961 255° West 360 414 36,000  Level Albuquerque Center
Thu 04:13:06 PM 35.7028 -106.1147 255° West 360 414 36,000  Level Albuquerque Center
Thu 04:14:08 PM 35.6750 -106.2456 255° West 364 419 36,000  Level Albuquerque Center
Thu 04:15:10 PM 35.6483 -106.3606 254° West 364 419 36,000  Level Albuquerque Center
Thu 04:16:12 PM 35.6153 -106.4956 253° West 362 417 36,000  Level Albuquerque Center
Thu 04:17:14 PM 35.5892 -106.6122 255° West 357 411 36,000  Level Albuquerque Center
Thu 04:18:17 PM 35.5628 -106.7292 255° West 357 411 36,000  Level Albuquerque Center
Thu 04:19:19 PM 35.5347 -106.8467 254° West 360 414 36,000  Level Albuquerque Center
Thu 04:20:21 PM 35.5072 -106.9656 254° West 363 418 36,000  Level Albuquerque Center
Thu 04:21:23 PM 35.4722 -107.1086 253° West 367 422 36,000  Level Albuquerque Center
Thu 04:22:25 PM 35.4428 -107.2353 254° West 371 427 36,000  Level Albuquerque Center
Thu 04:23:27 PM 35.4150 -107.3500 253° West 370 426 36,000  Level Albuquerque Center
Thu 04:24:29 PM 35.3831 -107.4808 253° West 362 417 36,000  Level Albuquerque Center
Thu 04:25:31 PM 35.3572 -107.5925 254° West 358 412 36,000  Level Albuquerque Center
Thu 04:26:33 PM 35.3250 -107.7219 253° West 356 410 36,000  Level Albuquerque Center
Thu 04:27:35 PM 35.2992 -107.8342 254° West 356 410 36,000  Level Albuquerque Center
Thu 04:28:37 PM 35.2706 -107.9461 253° West 357 411 36,000  Level Albuquerque Center
Thu 04:29:39 PM 35.2381 -108.0778 253° West 360 414 36,000  Level Albuquerque Center
Thu 04:30:41 PM 35.2108 -108.1897 253° West 360 414 36,000  Level Albuquerque Center
Thu 04:31:43 PM 35.1778 -108.3225 253° West 362 417 36,000  Level Albuquerque Center
Thu 04:32:45 PM 35.1489 -108.4381 253° West 367 422 36,000  Level Albuquerque Center
Thu 04:33:48 PM 35.1153 -108.5714 253° West 368 423 36,000  Level Albuquerque Center
Thu 04:34:50 PM 35.0867 -108.6836 253° West 364 419 36,000  Level Albuquerque Center
Thu 04:35:52 PM 35.0536 -108.8156 253° West 362 417 36,000  Level Albuquerque Center
Thu 04:36:54 PM 35.0253 -108.9294 253° West 365 420 36,000  Level Albuquerque Center
Thu 04:37:56 PM 34.9914 -109.0603 252° West 364 419 36,000  Level Albuquerque Center
Thu 04:38:58 PM 34.9611 -109.1747 252° West 366 421 36,000  Level Albuquerque Center
Thu 04:40:00 PM 34.9219 -109.2825 246° West 364 419 36,000  Level Albuquerque Center
Thu 04:41:02 PM 34.8747 -109.4103 246° West 368 423 36,000  Level Albuquerque Center
Thu 04:42:04 PM 34.8333 -109.5156 244° Southwest 361 415 36,000  Level Albuquerque Center
Thu 04:43:06 PM 34.7858 -109.6447 246° West 369 425 36,000  Level Albuquerque Center
Thu 04:44:08 PM 34.7458 -109.7547 246° West 371 427 36,000  Level Albuquerque Center
Thu 04:45:10 PM 34.6972 -109.8844 246° West 375 432 36,000  Level Albuquerque Center
Thu 04:46:12 PM 34.6561 -109.9950 246° West 375 432 36,000 -145 Level Albuquerque Center
Thu 04:47:14 PM 34.6097 -110.1272 247° West 379 436 35,700 -629 Descending Albuquerque Center
Thu 04:48:16 PM 34.5717 -110.2378 247° West 372 428 34,700 -1,065 Descending Albuquerque Center
Thu 04:49:18 PM 34.5203 -110.3539 242° Southwest 355 409 33,500 -1,508 Descending Albuquerque Center
Thu 04:51:23 PM 34.4425 -110.5750 247° West 356 410 30,000 -1,123 Descending Albuquerque Center
Thu 04:52:25 PM 34.4014 -110.6836 245° Southwest 355 409 30,000 -677 Level Albuquerque Center
Thu 04:53:27 PM 34.3536 -110.7925 242° Southwest 365 420 28,600 -2,081 Descending Albuquerque Center
Thu 04:54:29 PM 34.2897 -110.8819 229° Southwest 356 410 25,700 -2,806 Descending Albuquerque Center
Thu 04:55:31 PM 34.2128 -110.9792 226° Southwest 342 394 22,800 -2,710 Descending Albuquerque Center
Thu 04:56:33 PM 34.1522 -111.0564 227° Southwest 327 376 20,100 -2,371 Descending Albuquerque Center
Thu 04:57:35 PM 34.0922 -111.1339 227° Southwest 318 366 17,900 -1,887 Descending Albuquerque Center
Thu 04:58:37 PM 34.0339 -111.2089 227° Southwest 311 358 16,200 -1,597 Descending Albuquerque Center
Thu 04:59:39 PM 33.9792 -111.2803 227° Southwest 297 342 14,600 -1,548 Descending Albuquerque Center
Thu 05:00:41 PM 33.9244 -111.3506 227° Southwest 290 334 13,000 -1,452 Descending Albuquerque Center
Thu 05:01:43 PM 33.8561 -111.4283 223° Southwest 279 321 11,600 -968 Descending Albuquerque Center
Thu 05:02:45 PM 33.7956 -111.4800 215° Southwest 267 307 11,000 -435 Descending Albuquerque Center
Thu 05:03:47 PM 33.7375 -111.5281 215° Southwest 253 291 10,700 -726 Descending Albuquerque Center
Thu 05:04:49 PM 33.6875 -111.5728 217° Southwest 227 261 9,500 -1,104 Descending Albuquerque Center
Thu 05:05:52 PM 33.6306 -111.6036 204° Southwest 224 258 8,400 -1,152 Descending Albuquerque Center
Thu 05:06:54 PM 33.5778 -111.6439 212° Southwest 225 259 7,100 -1,016 Descending Albuquerque Center
Thu 05:07:56 PM 33.5308 -111.6925 221° Southwest 222 255 6,300 -1,113 Descending Albuquerque Center
Thu 05:08:58 PM 33.4914 -111.7636 236° Southwest 215 247 4,800 -1,210 Descending Albuquerque Center
Thu 05:10:00 PM 33.4636 -111.8267 242° Southwest 214 246 3,800 -677 Descending Albuquerque Center
Thu 05:11:02 PM 33.4436 -111.8844 247° West 189 217 3,400 -774 Descending Albuquerque Center
Thu 05:12:04 PM 33.4406 -111.9333 266° West 149 171 2,200 -1,016 Descending Albuquerque Center
Thu 05:13:06 PM 33.4403 -111.9881 270° West 146 168 1,300 -871 Descending Albuquerque Center
Thu 05:15:00 PM 33.4343 -112.0116 270° West  Level Estimated

Login

Don't have an account? Register now (free) for customized features, flight alerts, and more!